Time;durP1;ratioP1;P1;durP2;ratioP2;P2;SDS_P1;SDS_P2;PMS_P1;PMS_P2;Temp;Humidity;BMP_temperature;BMP_pressure;BME280_temperature;BME280_humidity;BME280_pressure;Samples;Min_cycle;Max_cycle;Signal;HPM_P1;HPM_P2
2024/04/11 00:02:12;;;;;;;6.37;4.80;;;9.90;50.60;;;;;;5431285;26;20243;-68
2024/04/11 00:04:38;;;;;;;6.53;4.63;;;9.90;50.30;;;;;;5445965;26;20281;-68
2024/04/11 00:07:06;;;;;;;5.57;4.73;;;9.90;50.70;;;;;;5437201;26;20287;-68
2024/04/11 00:09:31;;;;;;;5.83;4.47;;;9.90;50.40;;;;;;5436549;26;20405;-68
2024/04/11 00:12:00;;;;;;;6.63;4.60;;;9.90;49.90;;;;;;5436333;26;20289;-68
2024/04/11 00:14:25;;;;;;;6.03;4.73;;;10.00;49.00;;;;;;5437265;26;20351;-68
2024/04/11 00:16:54;;;;;;;5.83;4.53;;;10.10;49.10;;;;;;5432261;26;20257;-68
2024/04/11 00:19:19;;;;;;;6.47;4.77;;;10.20;48.80;;;;;;5438480;26;20254;-68
2024/04/11 00:21:48;;;;;;;5.13;4.63;;;10.00;49.00;;;;;;5448553;26;20334;-68
2024/04/11 00:24:14;;;;;;;5.83;4.10;;;9.90;50.50;;;;;;5437653;26;20289;-68
2024/04/11 00:26:42;;;;;;;6.00;4.73;;;10.00;49.00;;;;;;5443170;26;20376;-68
2024/04/11 00:29:08;;;;;;;5.03;4.47;;;9.90;50.00;;;;;;5445076;26;20245;-68
2024/04/11 00:31:36;;;;;;;8.30;4.30;;;9.90;50.30;;;;;;5439992;26;20290;-68
2024/04/11 00:34:13;;;;;;;6.30;4.30;;;9.90;49.90;;;;;;5436455;26;20274;-68
2024/04/11 00:36:41;;;;;;;5.10;4.60;;;9.80;49.80;;;;;;5436188;26;20276;-68
2024/04/11 00:39:07;;;;;;;6.60;4.20;;;9.80;50.80;;;;;;5455486;26;20249;-68
2024/04/11 00:41:35;;;;;;;5.33;4.57;;;9.80;50.50;;;;;;5439935;26;20338;-68
2024/04/11 00:44:01;;;;;;;5.23;4.43;;;9.80;50.90;;;;;;5435268;26;20255;-68
2024/04/11 00:46:30;;;;;;;6.83;4.60;;;9.80;51.10;;;;;;5446962;26;20680;-68
2024/04/11 00:48:55;;;;;;;5.87;5.00;;;9.80;52.10;;;;;;5437361;26;20239;-68
2024/04/11 00:51:24;;;;;;;4.90;4.33;;;9.60;52.30;;;;;;5430958;26;20638;-68
2024/04/11 00:53:51;;;;;;;5.20;4.10;;;9.60;51.90;;;;;;5407153;26;20668;-68
2024/04/11 00:56:19;;;;;;;8.40;4.30;;;9.60;52.10;;;;;;5450605;26;20238;-67
2024/04/11 00:58:45;;;;;;;5.63;4.83;;;9.60;52.70;;;;;;5436851;26;20290;-67
2024/04/11 01:01:13;;;;;;;5.97;4.40;;;9.50;53.20;;;;;;5434384;26;20580;-68
2024/04/11 01:03:39;;;;;;;5.37;3.90;;;9.50;53.00;;;;;;5435435;26;20825;-68
2024/04/11 01:06:07;;;;;;;5.10;4.30;;;9.50;53.40;;;;;;5446871;26;20241;-68
2024/04/11 01:08:33;;;;;;;5.03;4.53;;;9.40;53.40;;;;;;5439739;26;20298;-68
2024/04/11 01:11:01;;;;;;;6.10;4.27;;;9.40;53.60;;;;;;5423555;26;20353;-68
2024/04/11 01:13:26;;;;;;;5.87;4.87;;;9.40;53.80;;;;;;5440090;26;20238;-68
2024/04/11 01:15:57;;;;;;;6.50;4.03;;;9.30;53.90;;;;;;5450956;26;20584;-67
2024/04/11 01:18:24;;;;;;;4.70;4.17;;;9.20;54.20;;;;;;5408253;26;20288;-68
2024/04/11 01:20:53;;;;;;;6.77;4.90;;;9.30;54.20;;;;;;5438836;26;20735;-68
2024/04/11 01:23:19;;;;;;;5.20;4.70;;;9.20;54.10;;;;;;5433769;26;20247;-68
2024/04/11 01:25:48;;;;;;;6.00;4.33;;;9.10;54.50;;;;;;5446219;26;20271;-67
2024/04/11 01:28:14;;;;;;;5.27;4.70;;;9.00;54.40;;;;;;5434238;26;20234;-68
2024/04/11 01:30:42;;;;;;;4.97;4.50;;;8.90;54.60;;;;;;5447686;26;20272;-68
2024/04/11 01:33:09;;;;;;;7.67;5.00;;;8.80;54.40;;;;;;5432998;26;20817;-68
2024/04/11 01:35:38;;;;;;;5.27;4.60;;;8.70;55.00;;;;;;5447679;26;20346;-68
2024/04/11 01:38:05;;;;;;;8.97;5.43;;;8.70;55.10;;;;;;5437638;26;20250;-68
2024/04/11 01:40:34;;;;;;;7.63;5.00;;;8.60;55.10;;;;;;5416096;26;20350;-68
2024/04/11 01:43:00;;;;;;;9.37;4.90;;;8.50;55.50;;;;;;5433174;26;20253;-68
2024/04/11 01:45:30;;;;;;;9.43;5.37;;;8.50;55.30;;;;;;5439842;26;20238;-68
2024/04/11 01:47:56;;;;;;;6.83;5.10;;;8.50;55.30;;;;;;5410723;26;20249;-68
2024/04/11 01:50:26;;;;;;;6.43;5.20;;;8.60;55.50;;;;;;5447993;26;20308;-68
2024/04/11 01:52:51;;;;;;;5.97;5.03;;;8.40;55.40;;;;;;5439351;26;20361;-68
2024/04/11 01:55:20;;;;;;;5.60;4.60;;;8.40;55.90;;;;;;5439485;26;20237;-68
2024/04/11 01:57:45;;;;;;;6.13;4.83;;;8.20;56.50;;;;;;5447688;26;20236;-68
2024/04/11 02:00:15;;;;;;;5.30;4.80;;;8.30;56.00;;;;;;5433183;26;20289;-68
2024/04/11 02:02:43;;;;;;;6.93;5.33;;;8.20;56.30;;;;;;5441248;26;20246;-68
2024/04/11 02:05:11;;;;;;;6.33;5.50;;;8.20;56.50;;;;;;5437660;26;20255;-68
2024/04/11 02:07:37;;;;;;;7.93;5.17;;;8.10;57.00;;;;;;5435502;26;20360;-68
2024/04/11 02:10:05;;;;;;;6.10;5.50;;;8.40;56.40;;;;;;5439846;26;20658;-68
2024/04/11 02:12:31;;;;;;;8.20;5.73;;;8.40;55.90;;;;;;5439345;26;20287;-68
2024/04/11 02:14:59;;;;;;;5.73;4.70;;;8.30;56.30;;;;;;5432534;26;20237;-68
2024/04/11 02:17:25;;;;;;;7.30;5.27;;;8.40;56.20;;;;;;5446216;26;20296;-68
2024/04/11 02:19:54;;;;;;;6.13;5.17;;;8.30;56.70;;;;;;5438311;26;20354;-68
2024/04/11 02:22:19;;;;;;;6.70;4.97;;;8.30;56.80;;;;;;5432778;26;20257;-68
2024/04/11 02:24:48;;;;;;;6.07;5.23;;;8.30;56.60;;;;;;5438434;26;20275;-68
2024/04/11 02:27:14;;;;;;;6.83;4.93;;;8.30;56.80;;;;;;5428389;26;20601;-68
2024/04/11 02:29:42;;;;;;;5.63;5.13;;;8.30;56.80;;;;;;5446213;26;20241;-68
2024/04/11 02:32:07;;;;;;;6.13;5.03;;;8.30;56.30;;;;;;5431701;26;20285;-68
2024/04/11 02:34:36;;;;;;;7.17;5.70;;;8.40;56.00;;;;;;5433159;26;20665;-68
2024/04/11 02:37:02;;;;;;;5.87;5.20;;;8.40;56.20;;;;;;5451404;26;20249;-68
2024/04/11 02:39:30;;;;;;;6.50;5.00;;;8.40;56.20;;;;;;5436860;26;20241;-68
2024/04/11 02:41:57;;;;;;;5.87;5.27;;;8.40;56.30;;;;;;5432580;26;20253;-68
2024/04/11 02:44:25;;;;;;;6.27;5.37;;;8.20;56.40;;;;;;5432281;26;20249;-68
2024/04/11 02:46:51;;;;;;;5.60;5.10;;;8.30;57.00;;;;;;5447826;26;20289;-67
2024/04/11 02:49:19;;;;;;;6.37;5.70;;;8.30;56.80;;;;;;5438308;26;20811;-68
2024/04/11 02:51:44;;;;;;;8.47;5.73;;;8.30;56.70;;;;;;5440230;26;20295;-68
2024/04/11 02:54:13;;;;;;;8.53;5.80;;;8.40;57.00;;;;;;5441758;26;20252;-68
2024/04/11 02:56:38;;;;;;;8.33;6.20;;;8.40;56.70;;;;;;5448331;26;20810;-68
2024/04/11 02:59:09;;;;;;;6.53;5.93;;;8.40;56.50;;;;;;5402998;26;20331;-68
2024/04/11 03:01:45;;;;;;;8.63;5.90;;;8.30;56.70;;;;;;5817319;21;20255;-67
2024/04/11 03:04:13;;;;;;;7.37;6.33;;;8.10;57.30;;;;;;5363745;26;20309;-68
2024/04/11 03:06:39;;;;;;;7.27;6.53;;;8.20;57.30;;;;;;5385817;26;20252;-68
2024/04/11 03:09:09;;;;;;;6.43;5.80;;;8.30;57.40;;;;;;5379803;26;20253;-68
2024/04/11 03:11:35;;;;;;;6.43;5.63;;;8.40;55.90;;;;;;5393461;26;20292;-68
2024/04/11 03:14:06;;;;;;;6.73;6.13;;;8.40;55.50;;;;;;5352534;26;20239;-68
2024/04/11 03:16:32;;;;;;;8.13;6.60;;;8.50;55.00;;;;;;5358659;26;20241;-68
2024/04/11 03:19:00;;;;;;;6.93;6.23;;;8.60;54.70;;;;;;5395113;26;20278;-67
2024/04/11 03:21:26;;;;;;;7.83;6.03;;;8.50;55.50;;;;;;5340407;26;20593;-68
2024/04/11 03:23:54;;;;;;;7.60;6.07;;;8.60;54.90;;;;;;5349700;26;20250;-68
2024/04/11 03:26:19;;;;;;;7.27;6.20;;;8.40;54.90;;;;;;5359650;26;20370;-68
2024/04/11 03:28:48;;;;;;;7.53;6.20;;;8.50;55.20;;;;;;5357473;26;20253;-68
2024/04/11 03:31:15;;;;;;;7.13;6.27;;;8.50;55.10;;;;;;5355640;26;20247;-68
2024/04/11 03:33:46;;;;;;;8.90;6.70;;;8.50;55.00;;;;;;5364566;26;20323;-68
2024/04/11 03:36:12;;;;;;;7.30;6.60;;;8.40;55.30;;;;;;5357930;26;20304;-68
2024/04/11 03:38:41;;;;;;;6.50;5.90;;;8.50;55.40;;;;;;5352085;26;20617;-68
2024/04/11 03:41:07;;;;;;;8.80;6.03;;;8.50;55.60;;;;;;5349845;26;20628;-68
2024/04/11 03:43:36;;;;;;;6.90;5.87;;;8.50;55.50;;;;;;5353131;26;20240;-67
2024/04/11 03:46:05;;;;;;;6.73;5.97;;;8.30;55.50;;;;;;5364088;26;20618;-68
2024/04/11 03:48:33;;;;;;;7.00;6.10;;;8.40;56.00;;;;;;5387681;26;20365;-67
2024/04/11 03:50:59;;;;;;;6.23;5.63;;;8.30;56.30;;;;;;5373466;26;20797;-67
2024/04/11 03:53:27;;;;;;;7.93;5.20;;;8.30;56.40;;;;;;5343469;26;20248;-68
2024/04/11 03:55:53;;;;;;;8.90;6.27;;;8.40;56.30;;;;;;5358260;26;20245;-68
2024/04/11 03:58:25;;;;;;;7.37;5.57;;;8.40;56.50;;;;;;5355086;26;20593;-67
2024/04/11 04:00:50;;;;;;;7.00;5.90;;;8.20;56.60;;;;;;5360426;26;20266;-68
2024/04/11 04:03:19;;;;;;;7.50;6.33;;;8.30;56.70;;;;;;5359849;26;20302;-68
2024/04/11 04:05:45;;;;;;;7.00;5.33;;;8.40;56.30;;;;;;5371470;26;20235;-67
2024/04/11 04:08:13;;;;;;;8.77;5.87;;;8.50;56.40;;;;;;5357267;26;20292;-67
2024/04/11 04:10:38;;;;;;;6.03;5.30;;;8.50;56.20;;;;;;5354167;26;20363;-67
2024/04/11 04:13:09;;;;;;;6.70;5.43;;;8.40;56.40;;;;;;5368507;26;20255;-67
2024/04/11 04:15:35;;;;;;;6.13;5.53;;;8.40;56.50;;;;;;5346718;26;20240;-67
2024/04/11 04:18:03;;;;;;;8.27;6.10;;;8.40;56.50;;;;;;5364336;26;20281;-67
2024/04/11 04:20:28;;;;;;;6.43;5.17;;;8.40;57.00;;;;;;5358957;26;20255;-67
2024/04/11 04:22:57;;;;;;;6.33;5.67;;;8.30;57.40;;;;;;5388740;26;20236;-67
2024/04/11 04:25:25;;;;;;;7.40;6.07;;;8.40;57.00;;;;;;5360041;26;20314;-67
2024/04/11 04:27:53;;;;;;;6.13;5.40;;;8.30;57.40;;;;;;5390894;26;20377;-68
2024/04/11 04:30:19;;;;;;;9.57;5.83;;;8.20;57.70;;;;;;5368709;26;20289;-67
2024/04/11 04:32:47;;;;;;;6.77;5.73;;;8.10;58.20;;;;;;5384450;26;20256;-67
2024/04/11 04:35:13;;;;;;;7.97;6.37;;;8.10;58.10;;;;;;5342503;26;20747;-68
2024/04/11 04:37:43;;;;;;;6.10;5.57;;;8.10;58.00;;;;;;5351204;26;20302;-67
2024/04/11 04:40:10;;;;;;;7.03;6.30;;;8.10;57.70;;;;;;5369230;26;20266;-67
2024/04/11 04:42:38;;;;;;;8.43;6.57;;;8.00;58.20;;;;;;5364745;26;20247;-68
2024/04/11 04:45:04;;;;;;;7.60;6.10;;;8.10;58.10;;;;;;5372543;26;20276;-67
2024/04/11 04:47:34;;;;;;;8.97;6.37;;;8.10;57.80;;;;;;5389808;26;20354;-67
2024/04/11 04:50:00;;;;;;;7.53;6.20;;;8.20;58.10;;;;;;5348569;26;20331;-67
2024/04/11 04:52:28;;;;;;;8.60;6.53;;;8.10;58.00;;;;;;5336846;26;20594;-67
2024/04/11 04:54:54;;;;;;;6.23;5.63;;;8.10;58.10;;;;;;5359240;26;20362;-67
2024/04/11 04:57:22;;;;;;;6.33;5.73;;;8.10;58.10;;;;;;5359207;26;20243;-67
2024/04/11 04:59:48;;;;;;;6.63;6.03;;;8.00;58.60;;;;;;5365300;26;20785;-67
2024/04/11 05:02:17;;;;;;;6.30;5.70;;;8.10;59.00;;;;;;5393525;26;20355;-67
2024/04/11 05:04:45;;;;;;;8.53;6.07;;;8.30;58.50;;;;;;5366821;26;20342;-68
2024/04/11 05:07:13;;;;;;;9.00;6.37;;;8.20;58.50;;;;;;5356999;26;20244;-68
2024/04/11 05:09:39;;;;;;;7.53;6.33;;;8.30;57.80;;;;;;5344967;26;20814;-67
2024/04/11 05:12:07;;;;;;;7.47;6.10;;;8.30;58.00;;;;;;5356521;26;20333;-67
2024/04/11 05:14:33;;;;;;;7.57;5.80;;;8.50;58.20;;;;;;5362394;26;20247;-67
2024/04/11 05:17:01;;;;;;;7.43;5.53;;;8.60;57.70;;;;;;5354261;26;20344;-67
2024/04/11 05:19:27;;;;;;;7.30;5.43;;;8.70;57.20;;;;;;5354416;26;20282;-67
2024/04/11 05:21:55;;;;;;;8.90;6.70;;;8.70;57.30;;;;;;5341103;26;20247;-68
2024/04/11 05:24:21;;;;;;;6.50;5.90;;;8.70;57.80;;;;;;5347912;26;20299;-68
2024/04/11 05:26:50;;;;;;;7.63;6.60;;;8.50;57.60;;;;;;5359775;26;20732;-68
2024/04/11 05:29:16;;;;;;;8.40;6.57;;;8.50;57.60;;;;;;5350578;26;20240;-68
2024/04/11 05:31:45;;;;;;;9.93;6.80;;;8.40;58.00;;;;;;5363543;26;20568;-67
2024/04/11 05:34:13;;;;;;;8.43;5.93;;;8.50;57.80;;;;;;5389945;26;20637;-68
2024/04/11 05:36:44;;;;;;;8.23;5.67;;;8.40;58.10;;;;;;5361520;26;20266;-67
2024/04/11 05:39:10;;;;;;;7.90;6.27;;;8.50;57.70;;;;;;5355756;26;20368;-67
2024/04/11 05:41:42;;;;;;;10.60;6.13;;;8.70;57.80;;;;;;5349721;26;20731;-67
2024/04/11 05:44:07;;;;;;;10.50;6.10;;;8.70;57.40;;;;;;5349352;26;20278;-67
2024/04/11 05:46:36;;;;;;;7.93;6.10;;;8.80;57.80;;;;;;5347517;26;20237;-67
2024/04/11 05:49:04;;;;;;;6.80;5.97;;;8.80;57.10;;;;;;5360308;26;20787;-67
2024/04/11 05:51:35;;;;;;;7.17;6.13;;;8.80;57.60;;;;;;5361658;26;20238;-67
2024/04/11 05:54:01;;;;;;;9.03;6.50;;;8.90;57.70;;;;;;5340213;26;20273;-68
2024/04/11 05:56:30;;;;;;;11.17;6.73;;;9.00;57.50;;;;;;5353896;26;20240;-67
2024/04/11 05:58:55;;;;;;;7.87;6.43;;;9.10;57.10;;;;;;5346422;26;20315;-67
2024/04/11 06:01:25;;;;;;;9.53;6.83;;;9.30;57.00;;;;;;5365774;26;20339;-67
2024/04/11 06:03:51;;;;;;;8.27;6.67;;;9.30;56.80;;;;;;5346472;26;20233;-67
2024/04/11 06:06:19;;;;;;;10.17;6.90;;;9.40;56.30;;;;;;5356508;26;20476;-67
2024/04/11 06:08:45;;;;;;;7.60;6.90;;;9.40;56.00;;;;;;5352476;26;20268;-67
2024/04/11 06:11:14;;;;;;;7.73;6.80;;;9.50;56.10;;;;;;5357561;26;20252;-67
2024/04/11 06:13:41;;;;;;;10.00;6.90;;;9.70;55.30;;;;;;5346841;26;20352;-67
2024/04/11 06:16:09;;;;;;;8.33;7.17;;;9.80;55.10;;;;;;5351580;26;20283;-68
2024/04/11 06:18:35;;;;;;;11.53;7.37;;;9.90;54.30;;;;;;5354035;26;20349;-67
2024/04/11 06:21:04;;;;;;;10.07;7.40;;;9.60;55.10;;;;;;5368065;26;20247;-67
2024/04/11 06:23:30;;;;;;;8.07;7.27;;;9.90;55.20;;;;;;5369449;26;20281;-67
2024/04/11 06:25:59;;;;;;;9.23;7.37;;;10.10;53.40;;;;;;5359707;26;20248;-68
2024/04/11 06:28:26;;;;;;;9.03;6.80;;;10.20;53.20;;;;;;5360402;26;20288;-67
2024/04/11 06:30:54;;;;;;;8.50;7.20;;;10.30;53.40;;;;;;5357422;26;20249;-68
2024/04/11 06:33:21;;;;;;;8.10;7.40;;;10.50;52.80;;;;;;5367021;26;20242;-69
2024/04/11 06:35:51;;;;;;;10.50;7.30;;;10.60;52.30;;;;;;5353855;26;20242;-68
2024/04/11 06:38:17;;;;;;;8.30;7.07;;;10.60;52.10;;;;;;5366285;26;20766;-68
2024/04/11 06:40:45;;;;;;;10.40;6.80;;;10.70;52.20;;;;;;5348269;26;20242;-68
2024/04/11 06:43:13;;;;;;;8.50;6.80;;;10.90;51.80;;;;;;5403074;26;20250;-67
2024/04/11 06:45:41;;;;;;;9.33;7.33;;;11.10;51.10;;;;;;5352256;26;20269;-67
2024/04/11 06:48:08;;;;;;;7.73;6.90;;;11.10;51.00;;;;;;5359285;26;20302;-68
2024/04/11 06:50:37;;;;;;;8.00;6.00;;;11.30;50.20;;;;;;5360637;26;20843;-68
2024/04/11 06:53:04;;;;;;;8.50;5.90;;;11.40;50.30;;;;;;5364567;26;20311;-68
2024/04/11 06:55:34;;;;;;;9.60;7.77;;;11.60;49.40;;;;;;5359411;26;20291;-68
2024/04/11 06:58:01;;;;;;;9.10;7.27;;;11.60;49.00;;;;;;5349414;26;20309;-68
2024/04/11 07:00:35;;;;;;;5.67;5.13;;;11.80;48.40;;;;;;5389600;26;20245;-68
2024/04/11 07:03:02;;;;;;;8.93;5.90;;;12.00;47.50;;;;;;5336814;26;20282;-68
2024/04/11 07:05:30;;;;;;;7.63;5.20;;;12.00;47.70;;;;;;5361503;26;20259;-68
2024/04/11 07:07:59;;;;;;;6.73;4.97;;;12.20;47.40;;;;;;5343744;26;20726;-67
2024/04/11 07:10:36;;;;;;;5.63;5.03;;;12.30;46.60;;;;;;5336042;26;20284;-68
2024/04/11 07:13:01;;;;;;;5.30;4.77;;;12.40;46.50;;;;;;5357524;26;20253;-68
2024/04/11 07:15:34;;;;;;;6.17;4.97;;;12.60;46.30;;;;;;5342088;26;20339;-68
2024/04/11 07:18:01;;;;;;;6.40;4.70;;;12.50;45.60;;;;;;5342693;26;20760;-73
2024/04/11 07:20:31;;;;;;;7.50;4.70;;;12.60;46.80;;;;;;5363664;26;20432;-71
2024/04/11 07:22:58;;;;;;;5.27;4.77;;;13.00;45.80;;;;;;5357324;26;20266;-67
2024/04/11 07:25:26;;;;;;;7.97;5.13;;;13.00;45.30;;;;;;5355708;26;20596;-68
2024/04/11 07:27:55;;;;;;;5.97;5.17;;;13.00;44.30;;;;;;5360233;26;20397;-68
2024/04/11 07:30:24;;;;;;;5.77;4.40;;;12.90;44.50;;;;;;5365231;26;20304;-68
2024/04/11 07:32:49;;;;;;;8.23;5.10;;;13.00;44.90;;;;;;5359943;26;20270;-68
2024/04/11 07:35:18;;;;;;;5.27;4.77;;;13.10;43.70;;;;;;5358016;26;20318;-68
2024/04/11 07:37:43;;;;;;;4.73;4.27;;;13.30;44.00;;;;;;5363351;26;20260;-68
2024/04/11 07:40:27;;;;;;;4.93;4.43;;;13.50;43.00;;;;;;5366749;26;20719;-68
2024/04/11 07:42:55;;;;;;;6.50;4.67;;;13.60;42.30;;;;;;5348372;26;20245;-67
2024/04/11 07:45:30;;;;;;;6.47;4.60;;;13.50;41.30;;;;;;5357101;26;20244;-67
2024/04/11 07:47:58;;;;;;;4.13;3.80;;;13.70;42.20;;;;;;5341617;26;20281;-67
2024/04/11 07:50:27;;;;;;;5.00;4.13;;;13.70;41.30;;;;;;5360627;26;20255;-67
2024/04/11 07:52:53;;;;;;;6.67;4.93;;;14.00;40.60;;;;;;5367110;26;20293;-68
2024/04/11 07:55:22;;;;;;;7.47;5.40;;;13.80;40.00;;;;;;5366030;26;20251;-67
2024/04/11 07:57:48;;;;;;;6.40;3.83;;;14.00;38.90;;;;;;5366051;26;20259;-67
2024/04/11 08:00:20;;;;;;;5.40;4.10;;;14.10;39.40;;;;;;5360785;26;20311;-67
2024/04/11 08:02:45;;;;;;;4.77;4.10;;;14.30;39.10;;;;;;5311713;26;20264;-68
2024/04/11 08:05:13;;;;;;;5.33;4.30;;;14.30;38.80;;;;;;5353241;26;20243;-67
2024/04/11 08:07:42;;;;;;;6.97;4.43;;;14.40;38.60;;;;;;5361858;26;20294;-67
2024/04/11 08:10:13;;;;;;;6.20;4.50;;;14.30;38.30;;;;;;5355874;26;20290;-66
2024/04/11 08:12:38;;;;;;;4.20;3.90;;;14.40;38.20;;;;;;5347906;26;20257;-65
2024/04/11 08:15:06;;;;;;;4.57;4.17;;;14.70;38.60;;;;;;5355105;26;20348;-66
2024/04/11 08:17:37;;;;;;;5.67;4.10;;;14.70;38.70;;;;;;5331610;26;20356;-66
2024/04/11 08:20:12;;;;;;;6.03;4.43;;;15.00;38.80;;;;;;5346503;26;20290;-66
2024/04/11 08:22:38;;;;;;;5.23;4.73;;;15.10;37.90;;;;;;5336266;26;20260;-67
2024/04/11 08:25:09;;;;;;;5.57;4.90;;;15.10;37.70;;;;;;5355966;26;20302;-66
2024/04/11 08:27:34;;;;;;;6.30;4.47;;;15.10;37.80;;;;;;5352165;26;20237;-66
2024/04/11 08:30:05;;;;;;;5.40;4.80;;;15.20;38.40;;;;;;5356001;26;20647;-66
2024/04/11 08:32:31;;;;;;;5.67;5.00;;;15.40;36.90;;;;;;5328161;26;20289;-65
2024/04/11 08:35:00;;;;;;;7.30;5.97;;;15.20;37.90;;;;;;5330636;26;20256;-67
2024/04/11 08:37:28;;;;;;;6.60;5.30;;;15.50;37.50;;;;;;5352713;26;20259;-66
2024/04/11 08:39:56;;;;;;;7.40;5.57;;;15.50;37.50;;;;;;5350754;26;20255;-65
2024/04/11 08:42:22;;;;;;;5.47;4.73;;;15.70;37.20;;;;;;5340367;26;20325;-66
2024/04/11 08:44:50;;;;;;;6.10;5.20;;;16.00;37.40;;;;;;5351501;26;20270;-66
2024/04/11 08:47:16;;;;;;;5.83;5.23;;;16.10;37.20;;;;;;5349340;26;20355;-65
2024/04/11 08:49:44;;;;;;;7.27;5.07;;;16.20;36.00;;;;;;5346336;26;20783;-68
2024/04/11 08:52:10;;;;;;;5.67;4.67;;;15.60;37.40;;;;;;5339518;26;20253;-67
2024/04/11 08:54:38;;;;;;;6.77;4.73;;;16.00;37.10;;;;;;5345890;26;20239;-68
2024/04/11 08:57:04;;;;;;;7.53;5.70;;;16.20;35.20;;;;;;5345987;26;20245;-67
2024/04/11 08:59:32;;;;;;;7.50;4.97;;;16.20;35.30;;;;;;5366667;26;20282;-66
2024/04/11 09:01:58;;;;;;;6.90;5.53;;;16.60;34.60;;;;;;5351547;26;20256;-67
2024/04/11 09:04:28;;;;;;;5.03;4.53;;;16.40;34.60;;;;;;5353649;26;20300;-66
2024/04/11 09:06:53;;;;;;;5.00;4.60;;;16.60;36.30;;;;;;5357046;26;20236;-67
2024/04/11 09:09:23;;;;;;;5.73;5.07;;;16.90;35.20;;;;;;5346434;26;20696;-67
2024/04/11 09:11:49;;;;;;;7.37;4.70;;;17.30;34.80;;;;;;5344705;26;20733;-67
2024/04/11 09:14:17;;;;;;;6.40;4.70;;;17.60;35.50;;;;;;5360552;26;20240;-67
2024/04/11 09:16:43;;;;;;;6.87;5.43;;;17.10;33.40;;;;;;5360020;26;20304;-67
2024/04/11 09:19:12;;;;;;;5.03;4.60;;;16.70;35.40;;;;;;5360271;26;20233;-67
2024/04/11 09:21:40;;;;;;;5.43;4.17;;;17.50;32.30;;;;;;5345505;26;20287;-67
2024/04/11 09:24:10;;;;;;;6.93;4.20;;;18.50;33.50;;;;;;5360189;26;20283;-67
2024/04/11 09:26:35;;;;;;;4.82;4.32;;;18.20;32.40;;;;;;5333936;26;20291;-66
2024/04/11 09:29:04;;;;;;;4.63;4.10;;;17.80;34.00;;;;;;5345238;26;20233;-67
2024/04/11 09:31:30;;;;;;;4.63;4.23;;;17.50;33.70;;;;;;5360264;26;20341;-67
2024/04/11 09:33:59;;;;;;;5.80;4.07;;;17.30;33.60;;;;;;5345462;26;20295;-67
2024/04/11 09:36:27;;;;;;;5.20;4.70;;;17.40;33.90;;;;;;5358410;26;20251;-68
2024/04/11 09:39:04;;;;;;;5.20;4.23;;;17.70;33.00;;;;;;5362956;26;20739;-66
2024/04/11 09:41:31;;;;;;;5.03;4.07;;;17.80;32.60;;;;;;5334685;26;20777;-67
2024/04/11 09:44:01;;;;;;;5.20;4.63;;;18.10;32.80;;;;;;5349575;26;20247;-67
2024/04/11 09:46:27;;;;;;;5.30;4.40;;;17.90;32.70;;;;;;5353447;26;20237;-67
2024/04/11 09:48:55;;;;;;;4.97;4.50;;;17.70;32.50;;;;;;5354255;26;20319;-67
2024/04/11 09:51:21;;;;;;;5.53;4.83;;;18.10;32.30;;;;;;5355791;26;20248;-67
2024/04/11 09:53:51;;;;;;;7.17;4.37;;;18.30;32.60;;;;;;5344457;26;20334;-67
2024/04/11 09:56:17;;;;;;;4.47;3.93;;;18.20;32.90;;;;;;5358709;26;20279;-67
2024/04/11 09:58:46;;;;;;;5.17;4.10;;;18.20;31.60;;;;;;5347553;26;20299;-66
2024/04/11 10:01:11;;;;;;;4.60;4.17;;;18.20;32.60;;;;;;5359161;26;20346;-67
2024/04/11 10:03:42;;;;;;;4.90;4.13;;;18.50;30.50;;;;;;5345211;26;20264;-67
2024/04/11 10:06:07;;;;;;;4.77;3.93;;;18.50;30.20;;;;;;5363798;26;20615;-67
2024/04/11 10:08:36;;;;;;;5.57;3.83;;;18.00;30.80;;;;;;5353569;26;20357;-66
2024/04/11 10:11:03;;;;;;;7.10;4.03;;;17.90;31.60;;;;;;5345516;26;20248;-66
2024/04/11 10:13:34;;;;;;;5.90;4.40;;;18.10;30.70;;;;;;5361100;26;20290;-66
2024/04/11 10:15:59;;;;;;;4.80;4.10;;;17.70;30.80;;;;;;5349438;26;20618;-67
2024/04/11 10:18:28;;;;;;;4.13;3.73;;;17.20;31.50;;;;;;5365116;26;20297;-67
2024/04/11 10:20:59;;;;;;;4.47;3.70;;;17.50;31.70;;;;;;5359663;26;20237;-66
2024/04/11 10:23:29;;;;;;;7.23;4.97;;;17.20;32.00;;;;;;5335198;26;20745;-65
2024/04/11 10:25:56;;;;;;;4.30;3.90;;;17.20;31.70;;;;;;5350406;26;20758;-67
2024/04/11 10:28:24;;;;;;;5.60;4.30;;;17.40;31.70;;;;;;5383688;26;20240;-67
2024/04/11 10:30:51;;;;;;;5.57;4.00;;;17.70;32.00;;;;;;5356831;26;20277;-67
2024/04/11 10:33:20;;;;;;;4.20;3.80;;;18.00;31.10;;;;;;5341981;26;25446;-67
2024/04/11 10:35:47;;;;;;;4.77;4.23;;;18.30;31.10;;;;;;5359814;26;20237;-67
2024/04/11 10:38:19;;;;;;;5.70;3.80;;;18.00;31.10;;;;;;5358243;26;21255;-66
2024/04/11 10:40:45;;;;;;;5.37;4.17;;;17.30;32.10;;;;;;5326725;26;20332;-67
2024/04/11 10:43:24;;;;;;;6.10;4.20;;;16.90;34.10;;;;;;5322620;26;20671;-66
2024/04/11 10:45:49;;;;;;;6.77;3.87;;;17.00;32.80;;;;;;5359720;26;20248;-65
2024/04/11 10:48:18;;;;;;;7.50;4.57;;;17.40;32.40;;;;;;5330141;26;20802;-66
2024/04/11 10:50:44;;;;;;;6.47;4.37;;;17.30;32.10;;;;;;5337893;26;20309;-67
2024/04/11 10:53:14;;;;;;;6.27;4.70;;;17.40;32.70;;;;;;5349430;26;20337;-66
2024/04/11 10:55:43;;;;;;;6.30;4.43;;;18.00;31.60;;;;;;5331872;26;20287;-67
2024/04/11 10:58:13;;;;;;;4.57;4.13;;;17.90;31.80;;;;;;5322329;26;20365;-66
2024/04/11 11:01:07;;;;;;;4.87;4.17;;;18.10;32.10;;;;;;5335576;26;20254;-67
2024/04/11 11:03:46;;;;;;;4.87;4.47;;;18.40;31.50;;;;;;5342888;26;20248;-68
2024/04/11 11:06:12;;;;;;;5.03;4.53;;;18.50;30.10;;;;;;5361083;26;20288;-68
2024/04/11 11:08:43;;;;;;;5.53;4.20;;;17.10;32.20;;;;;;5351271;26;20248;-67
2024/04/11 11:11:11;;;;;;;5.23;4.40;;;17.20;33.20;;;;;;5358042;26;20766;-68
2024/04/11 11:13:40;;;;;;;4.70;4.17;;;17.10;32.80;;;;;;5353307;26;20653;-68
2024/04/11 11:16:12;;;;;;;6.43;4.23;;;17.70;32.20;;;;;;5395011;26;20308;-68
2024/04/11 11:18:39;;;;;;;5.83;4.73;;;18.00;31.50;;;;;;5353104;26;20294;-68
2024/04/11 11:21:07;;;;;;;5.53;4.37;;;18.70;30.20;;;;;;5335552;26;20288;-67
2024/04/11 11:23:34;;;;;;;4.30;3.90;;;18.30;30.90;;;;;;5341134;26;20252;-67
2024/04/11 11:26:02;;;;;;;6.13;4.40;;;17.30;32.10;;;;;;5351963;26;20260;-67
2024/04/11 11:28:28;;;;;;;5.07;4.57;;;17.30;33.00;;;;;;5344320;26;20853;-66
2024/04/11 11:31:00;;;;;;;5.00;4.50;;;17.20;32.30;;;;;;5340568;26;20361;-68
2024/04/11 11:33:28;;;;;;;5.27;4.77;;;16.70;33.60;;;;;;5335640;26;20374;-68
2024/04/11 11:35:56;;;;;;;5.07;4.47;;;16.80;34.70;;;;;;5336942;26;20241;-67
2024/04/11 11:38:23;;;;;;;5.37;4.40;;;16.90;33.90;;;;;;5331897;26;20242;-67
2024/04/11 11:40:54;;;;;;;6.00;5.00;;;17.00;34.00;;;;;;5343864;26;20300;-67
2024/04/11 11:43:19;;;;;;;4.27;3.87;;;17.00;33.00;;;;;;5367319;26;20291;-67
2024/04/11 11:46:17;;;;;;;4.47;4.15;;;18.50;31.30;;;;;;5360622;26;20304;-67
2024/04/11 11:48:35;;;;;;;5.28;4.47;;;20.00;28.90;;;;;;5359459;26;20244;-67
2024/04/11 11:51:05;;;;;;;5.13;4.32;;;19.00;29.90;;;;;;5348311;26;20248;-67
2024/04/11 11:53:32;;;;;;;4.35;3.90;;;18.30;30.60;;;;;;5346965;26;20982;-68
2024/04/11 11:56:05;;;;;;;4.97;4.32;;;18.30;30.90;;;;;;5335692;26;20721;-67
2024/04/11 11:58:30;;;;;;;4.32;3.92;;;18.10;30.80;;;;;;5333048;26;20253;-67
2024/04/11 12:01:11;;;;;;;4.57;4.18;;;19.10;30.50;;;;;;5325844;26;20271;-67
2024/04/11 12:03:44;;;;;;;3.70;3.40;;;20.50;28.90;;;;;;5356471;26;20287;-66
2024/04/11 12:06:12;;;;;;;4.22;3.40;;;19.50;29.40;;;;;;5355271;26;20249;-67
2024/04/11 12:08:38;;;;;;;6.07;3.65;;;19.40;30.00;;;;;;5343346;26;20763;-66
2024/04/11 12:11:21;;;;;;;5.35;4.38;;;18.70;30.10;;;;;;5336937;26;20233;-67
2024/04/11 12:13:51;;;;;;;5.05;4.15;;;18.30;30.50;;;;;;5325870;26;20648;-67
2024/04/11 12:16:19;;;;;;;5.20;4.30;;;18.10;31.00;;;;;;5339332;26;20241;-67
2024/04/11 12:18:46;;;;;;;4.27;3.87;;;17.90;31.10;;;;;;5341186;26;20244;-67
2024/04/11 12:21:25;;;;;;;5.03;4.60;;;17.60;31.80;;;;;;5361874;26;20233;-67
2024/04/11 12:23:51;;;;;;;4.43;4.00;;;17.50;31.90;;;;;;5368686;26;20275;-67
2024/04/11 12:26:21;;;;;;;4.50;4.10;;;17.20;32.00;;;;;;5374478;26;20232;-67
2024/04/11 12:28:47;;;;;;;4.40;3.93;;;17.30;32.10;;;;;;5359130;26;20284;-67
2024/04/11 12:31:15;;;;;;;5.07;4.00;;;17.50;32.30;;;;;;5351112;26;20754;-70
2024/04/11 12:33:45;;;;;;;4.40;4.10;;;17.20;32.30;;;;;;5349195;26;20240;-67
2024/04/11 12:36:42;;;;;;;6.63;4.07;;;17.40;32.20;;;;;;5360735;26;20679;-67
2024/04/11 12:39:11;;;;;;;4.87;4.27;;;17.70;32.50;;;;;;5359211;26;20465;-66
2024/04/11 12:41:40;;;;;;;4.60;4.17;;;18.00;32.10;;;;;;5366489;26;20245;-67
2024/04/11 12:44:11;;;;;;;4.67;4.27;;;18.40;31.20;;;;;;5358834;26;20236;-68
2024/04/11 12:46:42;;;;;;;4.23;3.83;;;18.30;30.90;;;;;;5367460;26;20243;-68
2024/04/11 12:49:09;;;;;;;4.47;3.67;;;17.90;32.10;;;;;;5348243;26;20248;-67
2024/04/11 12:51:37;;;;;;;4.60;4.00;;;17.80;32.10;;;;;;5363004;26;20288;-72
2024/04/11 12:54:03;;;;;;;4.93;4.23;;;18.20;31.40;;;;;;5346269;26;20282;-67
2024/04/11 12:56:33;;;;;;;5.87;4.63;;;17.50;31.60;;;;;;5360156;26;20356;-67